sensor_id;sensor_type;location;lat;lon;timestamp;temperature;humidity
3542;DHT22;1785;47.388;8.538;2022-11-20T00:00:07;9.80;99.90
3542;DHT22;1785;47.388;8.538;2022-11-20T00:02:33;9.50;99.90
3542;DHT22;1785;47.388;8.538;2022-11-20T00:05:00;9.60;99.90
3542;DHT22;1785;47.388;8.538;2022-11-20T00:07:26;9.60;99.90
3542;DHT22;1785;47.388;8.538;2022-11-20T00:09:52;9.80;99.90
3542;DHT22;1785;47.388;8.538;2022-11-20T00:12:18;9.80;99.90
3542;DHT22;1785;47.388;8.538;2022-11-20T00:14:45;9.80;99.90
3542;DHT22;1785;47.388;8.538;2022-11-20T00:17:11;9.80;99.90
3542;DHT22;1785;47.388;8.538;2022-11-20T00:19:38;9.70;99.90
3542;DHT22;1785;47.388;8.538;2022-11-20T00:22:05;9.80;99.90
3542;DHT22;1785;47.388;8.538;2022-11-20T00:24:31;9.80;99.90
3542;DHT22;1785;47.388;8.538;2022-11-20T00:26:57;9.70;99.90
3542;DHT22;1785;47.388;8.538;2022-11-20T00:29:23;9.80;99.90
3542;DHT22;1785;47.388;8.538;2022-11-20T00:31:50;9.80;99.90
3542;DHT22;1785;47.388;8.538;2022-11-20T00:34:16;9.90;99.90
3542;DHT22;1785;47.388;8.538;2022-11-20T00:36:42;9.90;99.90
3542;DHT22;1785;47.388;8.538;2022-11-20T00:39:09;9.90;99.90
3542;DHT22;1785;47.388;8.538;2022-11-20T00:41:35;10.00;99.90
3542;DHT22;1785;47.388;8.538;2022-11-20T00:44:02;10.00;99.90
3542;DHT22;1785;47.388;8.538;2022-11-20T00:46:29;9.90;99.90
3542;DHT22;1785;47.388;8.538;2022-11-20T00:48:55;10.00;99.90
3542;DHT22;1785;47.388;8.538;2022-11-20T00:51:23;9.60;99.90
3542;DHT22;1785;47.388;8.538;2022-11-20T00:53:50;9.40;99.90
3542;DHT22;1785;47.388;8.538;2022-11-20T00:56:18;9.40;99.90
3542;DHT22;1785;47.388;8.538;2022-11-20T00:58:46;9.70;99.90
3542;DHT22;1785;47.388;8.538;2022-11-20T01:01:14;9.70;99.90
3542;DHT22;1785;47.388;8.538;2022-11-20T01:03:42;9.70;99.90
3542;DHT22;1785;47.388;8.538;2022-11-20T01:06:11;9.60;99.90
3542;DHT22;1785;47.388;8.538;2022-11-20T01:08:38;9.70;99.90
3542;DHT22;1785;47.388;8.538;2022-11-20T01:11:07;9.70;99.90
3542;DHT22;1785;47.388;8.538;2022-11-20T01:13:34;9.80;99.90
3542;DHT22;1785;47.388;8.538;2022-11-20T01:16:04;9.90;99.90
3542;DHT22;1785;47.388;8.538;2022-11-20T01:18:31;10.00;99.90
3542;DHT22;1785;47.388;8.538;2022-11-20T01:21:00;10.00;99.90
3542;DHT22;1785;47.388;8.538;2022-11-20T01:23:30;9.70;99.90
3542;DHT22;1785;47.388;8.538;2022-11-20T01:25:56;9.40;99.90
3542;DHT22;1785;47.388;8.538;2022-11-20T01:28:22;9.30;99.90
3542;DHT22;1785;47.388;8.538;2022-11-20T01:30:49;9.10;99.90
3542;DHT22;1785;47.388;8.538;2022-11-20T01:33:15;9.10;99.90
3542;DHT22;1785;47.388;8.538;2022-11-20T01:35:41;9.00;99.90
3542;DHT22;1785;47.388;8.538;2022-11-20T01:38:07;9.00;99.90
3542;DHT22;1785;47.388;8.538;2022-11-20T01:40:33;9.10;99.90
3542;DHT22;1785;47.388;8.538;2022-11-20T01:43:09;9.20;99.90
3542;DHT22;1785;47.388;8.538;2022-11-20T01:45:58;9.30;99.90
3542;DHT22;1785;47.388;8.538;2022-11-20T01:48:28;9.30;99.90
3542;DHT22;1785;47.388;8.538;2022-11-20T01:50:56;9.50;99.90
3542;DHT22;1785;47.388;8.538;2022-11-20T01:53:27;9.70;99.90
3542;DHT22;1785;47.388;8.538;2022-11-20T01:55:57;9.80;99.90
3542;DHT22;1785;47.388;8.538;2022-11-20T01:58:28;9.90;99.90
3542;DHT22;1785;47.388;8.538;2022-11-20T02:01:05;9.80;99.90
3542;DHT22;1785;47.388;8.538;2022-11-20T02:03:31;9.70;99.90
3542;DHT22;1785;47.388;8.538;2022-11-20T02:06:03;9.60;99.90
3542;DHT22;1785;47.388;8.538;2022-11-20T02:08:30;9.40;99.90
3542;DHT22;1785;47.388;8.538;2022-11-20T02:10:56;9.50;99.90
3542;DHT22;1785;47.388;8.538;2022-11-20T02:13:23;9.60;99.90
3542;DHT22;1785;47.388;8.538;2022-11-20T02:16:11;9.70;99.90
3542;DHT22;1785;47.388;8.538;2022-11-20T02:18:38;9.70;99.90
3542;DHT22;1785;47.388;8.538;2022-11-20T02:21:09;9.60;99.90
3542;DHT22;1785;47.388;8.538;2022-11-20T02:23:39;9.60;99.90
3542;DHT22;1785;47.388;8.538;2022-11-20T02:26:12;9.60;99.90
3542;DHT22;1785;47.388;8.538;2022-11-20T02:28:39;9.70;99.90
3542;DHT22;1785;47.388;8.538;2022-11-20T02:31:08;9.60;99.90
3542;DHT22;1785;47.388;8.538;2022-11-20T02:33:34;9.50;99.90
3542;DHT22;1785;47.388;8.538;2022-11-20T02:36:00;9.30;99.90
3542;DHT22;1785;47.388;8.538;2022-11-20T02:38:27;9.20;99.90
3542;DHT22;1785;47.388;8.538;2022-11-20T02:40:53;8.90;99.90
3542;DHT22;1785;47.388;8.538;2022-11-20T02:43:20;8.90;99.90
3542;DHT22;1785;47.388;8.538;2022-11-20T02:45:46;9.00;99.90
3542;DHT22;1785;47.388;8.538;2022-11-20T02:48:13;9.10;99.90
3542;DHT22;1785;47.388;8.538;2022-11-20T02:50:40;9.30;99.90
3542;DHT22;1785;47.388;8.538;2022-11-20T02:53:06;9.50;99.90
3542;DHT22;1785;47.388;8.538;2022-11-20T02:55:33;9.50;99.90
3542;DHT22;1785;47.388;8.538;2022-11-20T02:58:00;9.40;99.90
3542;DHT22;1785;47.388;8.538;2022-11-20T03:00:26;9.50;99.90
3542;DHT22;1785;47.388;8.538;2022-11-20T03:02:53;9.70;99.90
3542;DHT22;1785;47.388;8.538;2022-11-20T03:05:19;9.50;99.90
3542;DHT22;1785;47.388;8.538;2022-11-20T03:07:45;9.50;99.90
3542;DHT22;1785;47.388;8.538;2022-11-20T03:10:11;9.70;99.90
3542;DHT22;1785;47.388;8.538;2022-11-20T03:12:37;9.70;99.90
3542;DHT22;1785;47.388;8.538;2022-11-20T03:15:04;9.60;99.90
3542;DHT22;1785;47.388;8.538;2022-11-20T03:17:31;9.20;99.90
3542;DHT22;1785;47.388;8.538;2022-11-20T03:19:57;9.00;99.90
3542;DHT22;1785;47.388;8.538;2022-11-20T03:22:24;9.10;99.90
3542;DHT22;1785;47.388;8.538;2022-11-20T03:24:51;9.10;99.90
3542;DHT22;1785;47.388;8.538;2022-11-20T03:27:17;8.90;99.90
3542;DHT22;1785;47.388;8.538;2022-11-20T03:29:43;9.00;99.90
3542;DHT22;1785;47.388;8.538;2022-11-20T03:32:10;9.10;99.90
3542;DHT22;1785;47.388;8.538;2022-11-20T03:34:36;9.10;99.90
3542;DHT22;1785;47.388;8.538;2022-11-20T03:37:03;8.80;99.90
3542;DHT22;1785;47.388;8.538;2022-11-20T03:39:29;9.00;99.90
3542;DHT22;1785;47.388;8.538;2022-11-20T03:41:56;9.20;99.90
3542;DHT22;1785;47.388;8.538;2022-11-20T03:44:22;9.20;99.90
3542;DHT22;1785;47.388;8.538;2022-11-20T03:46:49;9.40;99.90
3542;DHT22;1785;47.388;8.538;2022-11-20T03:49:15;9.50;99.90
3542;DHT22;1785;47.388;8.538;2022-11-20T03:51:42;9.50;99.90
3542;DHT22;1785;47.388;8.538;2022-11-20T03:54:08;9.40;99.90
3542;DHT22;1785;47.388;8.538;2022-11-20T03:56:36;9.40;99.90
3542;DHT22;1785;47.388;8.538;2022-11-20T03:59:03;9.10;99.90
3542;DHT22;1785;47.388;8.538;2022-11-20T04:01:32;9.00;99.90
3542;DHT22;1785;47.388;8.538;2022-11-20T04:03:58;9.20;99.90
3542;DHT22;1785;47.388;8.538;2022-11-20T04:06:26;9.30;99.90
3542;DHT22;1785;47.388;8.538;2022-11-20T04:08:55;9.30;99.90
3542;DHT22;1785;47.388;8.538;2022-11-20T04:11:23;9.40;99.90
3542;DHT22;1785;47.388;8.538;2022-11-20T04:13:51;9.50;99.90
3542;DHT22;1785;47.388;8.538;2022-11-20T04:16:18;9.70;99.90
3542;DHT22;1785;47.388;8.538;2022-11-20T04:18:45;9.70;99.90
3542;DHT22;1785;47.388;8.538;2022-11-20T04:21:11;9.70;99.90
3542;DHT22;1785;47.388;8.538;2022-11-20T04:23:38;9.60;99.90
3542;DHT22;1785;47.388;8.538;2022-11-20T04:26:07;9.70;99.90
3542;DHT22;1785;47.388;8.538;2022-11-20T04:28:33;9.70;99.90
3542;DHT22;1785;47.388;8.538;2022-11-20T04:31:04;9.80;99.90
3542;DHT22;1785;47.388;8.538;2022-11-20T04:33:31;9.80;99.90
3542;DHT22;1785;47.388;8.538;2022-11-20T04:36:01;9.90;99.90
3542;DHT22;1785;47.388;8.538;2022-11-20T04:38:27;9.90;99.90
3542;DHT22;1785;47.388;8.538;2022-11-20T04:40:56;9.90;99.90
3542;DHT22;1785;47.388;8.538;2022-11-20T04:43:24;9.90;99.90
3542;DHT22;1785;47.388;8.538;2022-11-20T04:45:50;9.80;99.90
3542;DHT22;1785;47.388;8.538;2022-11-20T04:48:17;9.70;99.90
3542;DHT22;1785;47.388;8.538;2022-11-20T04:50:43;9.60;99.90
3542;DHT22;1785;47.388;8.538;2022-11-20T04:53:09;9.70;99.90
3542;DHT22;1785;47.388;8.538;2022-11-20T04:55:35;9.60;99.90
3542;DHT22;1785;47.388;8.538;2022-11-20T04:58:02;9.70;99.90
3542;DHT22;1785;47.388;8.538;2022-11-20T05:00:29;9.70;99.90
3542;DHT22;1785;47.388;8.538;2022-11-20T05:02:55;9.70;99.90
3542;DHT22;1785;47.388;8.538;2022-11-20T05:05:21;9.60;99.90
3542;DHT22;1785;47.388;8.538;2022-11-20T05:07:48;9.50;99.90
3542;DHT22;1785;47.388;8.538;2022-11-20T05:10:14;9.50;99.90
3542;DHT22;1785;47.388;8.538;2022-11-20T05:12:41;9.40;99.90
3542;DHT22;1785;47.388;8.538;2022-11-20T05:15:08;9.30;99.90
3542;DHT22;1785;47.388;8.538;2022-11-20T05:17:35;9.50;99.90
3542;DHT22;1785;47.388;8.538;2022-11-20T05:20:01;9.50;99.90
3542;DHT22;1785;47.388;8.538;2022-11-20T05:22:27;9.50;99.90
3542;DHT22;1785;47.388;8.538;2022-11-20T05:24:53;9.50;99.90
3542;DHT22;1785;47.388;8.538;2022-11-20T05:27:20;9.60;99.90
3542;DHT22;1785;47.388;8.538;2022-11-20T05:29:46;9.50;99.90
3542;DHT22;1785;47.388;8.538;2022-11-20T05:32:12;9.30;99.90
3542;DHT22;1785;47.388;8.538;2022-11-20T05:34:39;9.40;99.90
3542;DHT22;1785;47.388;8.538;2022-11-20T05:37:05;9.30;99.90
3542;DHT22;1785;47.388;8.538;2022-11-20T05:39:32;9.40;99.90
3542;DHT22;1785;47.388;8.538;2022-11-20T05:41:58;9.30;99.90
3542;DHT22;1785;47.388;8.538;2022-11-20T05:44:39;9.30;99.90
3542;DHT22;1785;47.388;8.538;2022-11-20T05:47:05;9.30;99.90
3542;DHT22;1785;47.388;8.538;2022-11-20T05:49:31;9.40;99.90
3542;DHT22;1785;47.388;8.538;2022-11-20T05:51:58;9.50;99.90
3542;DHT22;1785;47.388;8.538;2022-11-20T05:54:24;9.50;99.90
3542;DHT22;1785;47.388;8.538;2022-11-20T05:56:50;9.50;99.90
3542;DHT22;1785;47.388;8.538;2022-11-20T05:59:17;9.40;99.90
3542;DHT22;1785;47.388;8.538;2022-11-20T06:01:49;9.10;99.90
3542;DHT22;1785;47.388;8.538;2022-11-20T06:04:16;9.20;99.90
3542;DHT22;1785;47.388;8.538;2022-11-20T06:06:42;9.30;99.90
3542;DHT22;1785;47.388;8.538;2022-11-20T06:09:08;9.50;99.90
3542;DHT22;1785;47.388;8.538;2022-11-20T06:11:35;9.60;99.90
3542;DHT22;1785;47.388;8.538;2022-11-20T06:14:01;9.60;99.90
3542;DHT22;1785;47.388;8.538;2022-11-20T06:16:27;9.60;99.90
3542;DHT22;1785;47.388;8.538;2022-11-20T06:18:53;9.30;99.90
3542;DHT22;1785;47.388;8.538;2022-11-20T06:21:21;9.10;99.90
3542;DHT22;1785;47.388;8.538;2022-11-20T06:23:47;8.80;99.90
3542;DHT22;1785;47.388;8.538;2022-11-20T06:26:16;8.70;99.90
3542;DHT22;1785;47.388;8.538;2022-11-20T06:28:43;8.80;99.90
3542;DHT22;1785;47.388;8.538;2022-11-20T06:31:11;8.80;99.90
3542;DHT22;1785;47.388;8.538;2022-11-20T06:33:37;8.40;99.90
3542;DHT22;1785;47.388;8.538;2022-11-20T06:36:04;8.40;99.90
3542;DHT22;1785;47.388;8.538;2022-11-20T06:38:30;8.80;99.90
3542;DHT22;1785;47.388;8.538;2022-11-20T06:40:56;9.00;99.90
3542;DHT22;1785;47.388;8.538;2022-11-20T06:43:24;9.30;99.90
3542;DHT22;1785;47.388;8.538;2022-11-20T06:45:52;9.40;99.90
3542;DHT22;1785;47.388;8.538;2022-11-20T06:48:18;9.30;99.90
3542;DHT22;1785;47.388;8.538;2022-11-20T06:50:45;9.40;99.90
3542;DHT22;1785;47.388;8.538;2022-11-20T06:53:11;9.50;99.90
3542;DHT22;1785;47.388;8.538;2022-11-20T06:55:37;9.30;99.90
3542;DHT22;1785;47.388;8.538;2022-11-20T06:58:07;9.40;99.90
3542;DHT22;1785;47.388;8.538;2022-11-20T07:00:34;9.30;99.90
3542;DHT22;1785;47.388;8.538;2022-11-20T07:03:02;9.40;99.90
3542;DHT22;1785;47.388;8.538;2022-11-20T07:05:28;9.50;99.90
3542;DHT22;1785;47.388;8.538;2022-11-20T07:07:55;9.50;99.90
3542;DHT22;1785;47.388;8.538;2022-11-20T07:10:21;9.40;99.90
3542;DHT22;1785;47.388;8.538;2022-11-20T07:12:49;9.40;99.90
3542;DHT22;1785;47.388;8.538;2022-11-20T07:15:16;9.40;99.90
3542;DHT22;1785;47.388;8.538;2022-11-20T07:17:43;9.30;99.90
3542;DHT22;1785;47.388;8.538;2022-11-20T07:20:10;9.10;99.90
3542;DHT22;1785;47.388;8.538;2022-11-20T07:22:36;9.10;99.90
3542;DHT22;1785;47.388;8.538;2022-11-20T07:25:03;9.20;99.90
3542;DHT22;1785;47.388;8.538;2022-11-20T07:27:29;9.20;99.90
3542;DHT22;1785;47.388;8.538;2022-11-20T07:29:56;8.80;99.90
3542;DHT22;1785;47.388;8.538;2022-11-20T07:32:22;8.70;99.90
3542;DHT22;1785;47.388;8.538;2022-11-20T07:34:49;8.50;99.90
3542;DHT22;1785;47.388;8.538;2022-11-20T07:37:15;8.60;99.90
3542;DHT22;1785;47.388;8.538;2022-11-20T07:39:42;8.80;99.90
3542;DHT22;1785;47.388;8.538;2022-11-20T07:42:08;9.00;99.90
3542;DHT22;1785;47.388;8.538;2022-11-20T07:44:35;9.20;99.90
3542;DHT22;1785;47.388;8.538;2022-11-20T07:47:01;8.70;99.90
3542;DHT22;1785;47.388;8.538;2022-11-20T07:49:27;8.40;99.90
3542;DHT22;1785;47.388;8.538;2022-11-20T07:51:54;8.60;99.90
3542;DHT22;1785;47.388;8.538;2022-11-20T07:54:20;8.60;99.90
3542;DHT22;1785;47.388;8.538;2022-11-20T07:56:47;8.60;99.90
3542;DHT22;1785;47.388;8.538;2022-11-20T07:59:13;8.40;99.90
3542;DHT22;1785;47.388;8.538;2022-11-20T08:01:40;8.30;99.90
3542;DHT22;1785;47.388;8.538;2022-11-20T08:04:06;8.40;99.90
3542;DHT22;1785;47.388;8.538;2022-11-20T08:06:32;8.40;99.90
3542;DHT22;1785;47.388;8.538;2022-11-20T08:08:59;8.40;99.90
3542;DHT22;1785;47.388;8.538;2022-11-20T08:11:25;8.50;99.90
3542;DHT22;1785;47.388;8.538;2022-11-20T08:14:10;8.40;99.90
3542;DHT22;1785;47.388;8.538;2022-11-20T08:16:39;8.60;99.90
3542;DHT22;1785;47.388;8.538;2022-11-20T08:19:05;8.60;99.90
3542;DHT22;1785;47.388;8.538;2022-11-20T08:21:31;8.50;99.90
3542;DHT22;1785;47.388;8.538;2022-11-20T08:23:59;8.40;99.90
3542;DHT22;1785;47.388;8.538;2022-11-20T08:26:26;8.60;99.90
3542;DHT22;1785;47.388;8.538;2022-11-20T08:28:53;8.60;99.90
3542;DHT22;1785;47.388;8.538;2022-11-20T08:31:20;8.60;99.90
3542;DHT22;1785;47.388;8.538;2022-11-20T08:33:46;8.60;99.90
3542;DHT22;1785;47.388;8.538;2022-11-20T08:36:12;8.80;99.90
3542;DHT22;1785;47.388;8.538;2022-11-20T08:38:38;8.50;99.90
3542;DHT22;1785;47.388;8.538;2022-11-20T08:41:05;8.50;99.90
3542;DHT22;1785;47.388;8.538;2022-11-20T08:43:52;8.70;99.90
3542;DHT22;1785;47.388;8.538;2022-11-20T08:46:19;8.50;99.90
3542;DHT22;1785;47.388;8.538;2022-11-20T08:48:45;8.50;99.90
3542;DHT22;1785;47.388;8.538;2022-11-20T08:51:12;8.50;99.90
3542;DHT22;1785;47.388;8.538;2022-11-20T08:53:38;8.50;99.90
3542;DHT22;1785;47.388;8.538;2022-11-20T08:56:06;8.40;99.90
3542;DHT22;1785;47.388;8.538;2022-11-20T08:58:33;8.60;99.90
3542;DHT22;1785;47.388;8.538;2022-11-20T09:00:59;8.90;99.90
3542;DHT22;1785;47.388;8.538;2022-11-20T09:03:25;9.30;99.90
3542;DHT22;1785;47.388;8.538;2022-11-20T09:05:57;8.90;99.90
3542;DHT22;1785;47.388;8.538;2022-11-20T09:08:23;8.60;99.90
3542;DHT22;1785;47.388;8.538;2022-11-20T09:10:51;8.80;99.90
3542;DHT22;1785;47.388;8.538;2022-11-20T09:13:18;9.00;99.90
3542;DHT22;1785;47.388;8.538;2022-11-20T09:15:44;9.00;99.90
3542;DHT22;1785;47.388;8.538;2022-11-20T09:18:10;8.90;99.90
3542;DHT22;1785;47.388;8.538;2022-11-20T09:20:36;9.20;99.90
3542;DHT22;1785;47.388;8.538;2022-11-20T09:23:03;9.10;99.90
3542;DHT22;1785;47.388;8.538;2022-11-20T09:25:29;8.60;99.90
3542;DHT22;1785;47.388;8.538;2022-11-20T09:27:56;8.60;99.90
3542;DHT22;1785;47.388;8.538;2022-11-20T09:30:23;8.50;99.90
3542;DHT22;1785;47.388;8.538;2022-11-20T09:32:49;8.50;99.90
3542;DHT22;1785;47.388;8.538;2022-11-20T09:35:15;8.40;99.90
3542;DHT22;1785;47.388;8.538;2022-11-20T09:37:43;8.80;99.90
3542;DHT22;1785;47.388;8.538;2022-11-20T09:40:19;9.50;99.90
3542;DHT22;1785;47.388;8.538;2022-11-20T09:42:49;9.30;99.90
3542;DHT22;1785;47.388;8.538;2022-11-20T09:45:24;9.10;99.90
3542;DHT22;1785;47.388;8.538;2022-11-20T09:48:14;8.80;99.90
3542;DHT22;1785;47.388;8.538;2022-11-20T09:50:46;8.70;99.90
3542;DHT22;1785;47.388;8.538;2022-11-20T09:53:22;8.70;99.90
3542;DHT22;1785;47.388;8.538;2022-11-20T09:55:49;9.10;99.90
3542;DHT22;1785;47.388;8.538;2022-11-20T09:58:24;9.40;99.90
3542;DHT22;1785;47.388;8.538;2022-11-20T10:00:57;9.40;99.90
3542;DHT22;1785;47.388;8.538;2022-11-20T10:03:35;9.30;99.90
3542;DHT22;1785;47.388;8.538;2022-11-20T10:06:05;8.60;99.90
3542;DHT22;1785;47.388;8.538;2022-11-20T10:08:40;8.50;99.90
3542;DHT22;1785;47.388;8.538;2022-11-20T10:11:14;8.40;99.90
3542;DHT22;1785;47.388;8.538;2022-11-20T10:13:52;8.50;99.90
3542;DHT22;1785;47.388;8.538;2022-11-20T10:16:28;8.40;99.90
3542;DHT22;1785;47.388;8.538;2022-11-20T10:19:09;8.50;99.90
3542;DHT22;1785;47.388;8.538;2022-11-20T10:21:52;8.80;99.90
3542;DHT22;1785;47.388;8.538;2022-11-20T10:24:47;8.80;99.90
3542;DHT22;1785;47.388;8.538;2022-11-20T10:30:17;9.10;99.90
3542;DHT22;1785;47.388;8.538;2022-11-20T10:32:49;9.10;99.90
3542;DHT22;1785;47.388;8.538;2022-11-20T10:35:21;9.30;99.90
3542;DHT22;1785;47.388;8.538;2022-11-20T10:37:51;9.40;99.90
3542;DHT22;1785;47.388;8.538;2022-11-20T10:40:23;9.50;99.90
3542;DHT22;1785;47.388;8.538;2022-11-20T10:42:56;9.60;99.90
3542;DHT22;1785;47.388;8.538;2022-11-20T10:45:33;9.40;99.90
3542;DHT22;1785;47.388;8.538;2022-11-20T10:48:12;9.60;99.90
3542;DHT22;1785;47.388;8.538;2022-11-20T10:50:52;9.50;99.90
3542;DHT22;1785;47.388;8.538;2022-11-20T10:53:31;9.50;99.90
3542;DHT22;1785;47.388;8.538;2022-11-20T10:56:05;9.40;99.90
3542;DHT22;1785;47.388;8.538;2022-11-20T10:58:40;9.40;99.90
3542;DHT22;1785;47.388;8.538;2022-11-20T11:01:14;9.60;99.90
3542;DHT22;1785;47.388;8.538;2022-11-20T11:03:42;9.70;99.90
3542;DHT22;1785;47.388;8.538;2022-11-20T11:06:13;9.60;99.90
3542;DHT22;1785;47.388;8.538;2022-11-20T11:08:43;9.80;99.90
3542;DHT22;1785;47.388;8.538;2022-11-20T11:11:20;9.80;99.90
3542;DHT22;1785;47.388;8.538;2022-11-20T11:13:47;9.50;99.90
3542;DHT22;1785;47.388;8.538;2022-11-20T11:16:20;9.40;99.90
3542;DHT22;1785;47.388;8.538;2022-11-20T11:18:47;9.30;99.90
3542;DHT22;1785;47.388;8.538;2022-11-20T11:21:21;9.50;99.90
3542;DHT22;1785;47.388;8.538;2022-11-20T11:23:57;9.70;99.90
3542;DHT22;1785;47.388;8.538;2022-11-20T11:26:24;9.60;99.90
3542;DHT22;1785;47.388;8.538;2022-11-20T11:28:56;9.40;99.90
3542;DHT22;1785;47.388;8.538;2022-11-20T11:31:24;9.40;99.90
3542;DHT22;1785;47.388;8.538;2022-11-20T11:33:51;9.60;99.90
3542;DHT22;1785;47.388;8.538;2022-11-20T11:36:21;9.60;99.90
3542;DHT22;1785;47.388;8.538;2022-11-20T11:38:50;9.40;99.90
3542;DHT22;1785;47.388;8.538;2022-11-20T11:41:20;9.40;99.90
3542;DHT22;1785;47.388;8.538;2022-11-20T11:43:51;9.40;99.90
3542;DHT22;1785;47.388;8.538;2022-11-20T11:46:37;9.30;99.90
3542;DHT22;1785;47.388;8.538;2022-11-20T11:49:15;9.50;99.90
3542;DHT22;1785;47.388;8.538;2022-11-20T11:51:54;9.40;99.90
3542;DHT22;1785;47.388;8.538;2022-11-20T11:54:24;9.30;99.90
3542;DHT22;1785;47.388;8.538;2022-11-20T11:56:52;9.30;99.90
3542;DHT22;1785;47.388;8.538;2022-11-20T11:59:27;9.40;99.90
3542;DHT22;1785;47.388;8.538;2022-11-20T12:01:58;9.40;99.90
3542;DHT22;1785;47.388;8.538;2022-11-20T12:04:42;9.60;99.90
3542;DHT22;1785;47.388;8.538;2022-11-20T12:07:12;9.70;99.90
3542;DHT22;1785;47.388;8.538;2022-11-20T12:09:46;10.00;99.90
3542;DHT22;1785;47.388;8.538;2022-11-20T12:12:17;9.80;99.90
3542;DHT22;1785;47.388;8.538;2022-11-20T12:14:47;9.80;99.90
3542;DHT22;1785;47.388;8.538;2022-11-20T12:17:15;9.70;99.90
3542;DHT22;1785;47.388;8.538;2022-11-20T12:19:43;9.90;99.90
3542;DHT22;1785;47.388;8.538;2022-11-20T12:22:19;10.10;99.90
3542;DHT22;1785;47.388;8.538;2022-11-20T12:24:53;10.30;99.90
3542;DHT22;1785;47.388;8.538;2022-11-20T12:30:32;10.70;99.90
3542;DHT22;1785;47.388;8.538;2022-11-20T12:33:18;10.60;99.90
3542;DHT22;1785;47.388;8.538;2022-11-20T12:36:06;10.50;99.90
3542;DHT22;1785;47.388;8.538;2022-11-20T12:38:49;10.20;99.90
3542;DHT22;1785;47.388;8.538;2022-11-20T12:41:27;10.10;99.90
3542;DHT22;1785;47.388;8.538;2022-11-20T12:44:25;10.40;99.90
3542;DHT22;1785;47.388;8.538;2022-11-20T12:47:20;10.60;99.90
3542;DHT22;1785;47.388;8.538;2022-11-20T12:49:54;10.80;99.90
3542;DHT22;1785;47.388;8.538;2022-11-20T12:52:34;11.10;99.90
3542;DHT22;1785;47.388;8.538;2022-11-20T12:55:21;11.20;99.90
3542;DHT22;1785;47.388;8.538;2022-11-20T12:57:53;11.30;99.90
3542;DHT22;1785;47.388;8.538;2022-11-20T13:00:21;11.20;99.90
3542;DHT22;1785;47.388;8.538;2022-11-20T13:05:53;11.10;99.90
3542;DHT22;1785;47.388;8.538;2022-11-20T13:08:24;10.60;99.90
3542;DHT22;1785;47.388;8.538;2022-11-20T13:10:59;10.40;99.90
3542;DHT22;1785;47.388;8.538;2022-11-20T13:13:35;10.60;99.90
3542;DHT22;1785;47.388;8.538;2022-11-20T13:16:05;10.50;99.90
3542;DHT22;1785;47.388;8.538;2022-11-20T13:18:38;10.50;99.90
3542;DHT22;1785;47.388;8.538;2022-11-20T13:21:17;10.60;99.90
3542;DHT22;1785;47.388;8.538;2022-11-20T13:23:45;10.80;99.90
3542;DHT22;1785;47.388;8.538;2022-11-20T13:26:17;10.80;99.90
3542;DHT22;1785;47.388;8.538;2022-11-20T13:28:46;10.90;99.90
3542;DHT22;1785;47.388;8.538;2022-11-20T13:31:30;10.60;99.90
3542;DHT22;1785;47.388;8.538;2022-11-20T13:33:58;10.70;99.90
3542;DHT22;1785;47.388;8.538;2022-11-20T13:36:28;10.90;99.90
3542;DHT22;1785;47.388;8.538;2022-11-20T13:38:59;11.10;99.90
3542;DHT22;1785;47.388;8.538;2022-11-20T13:41:27;10.90;99.90
3542;DHT22;1785;47.388;8.538;2022-11-20T13:43:59;10.50;99.90
3542;DHT22;1785;47.388;8.538;2022-11-20T13:46:39;10.30;99.90
3542;DHT22;1785;47.388;8.538;2022-11-20T13:49:19;10.30;99.90
3542;DHT22;1785;47.388;8.538;2022-11-20T13:51:49;10.30;99.90
3542;DHT22;1785;47.388;8.538;2022-11-20T13:54:58;10.40;99.90
3542;DHT22;1785;47.388;8.538;2022-11-20T13:58:00;10.50;99.90
3542;DHT22;1785;47.388;8.538;2022-11-20T14:00:31;10.40;99.90
3542;DHT22;1785;47.388;8.538;2022-11-20T14:03:09;10.60;99.90
3542;DHT22;1785;47.388;8.538;2022-11-20T14:05:45;10.60;99.90
3542;DHT22;1785;47.388;8.538;2022-11-20T14:08:19;10.50;99.90
3542;DHT22;1785;47.388;8.538;2022-11-20T14:10:50;10.50;99.90
3542;DHT22;1785;47.388;8.538;2022-11-20T14:13:18;10.60;99.90
3542;DHT22;1785;47.388;8.538;2022-11-20T14:15:44;10.70;99.90
3542;DHT22;1785;47.388;8.538;2022-11-20T14:18:13;10.60;99.90
3542;DHT22;1785;47.388;8.538;2022-11-20T14:20:39;10.60;99.90
3542;DHT22;1785;47.388;8.538;2022-11-20T14:23:09;10.70;99.90
3542;DHT22;1785;47.388;8.538;2022-11-20T14:25:37;10.80;99.90
3542;DHT22;1785;47.388;8.538;2022-11-20T14:28:18;10.60;99.90
3542;DHT22;1785;47.388;8.538;2022-11-20T14:30:47;10.60;99.90
3542;DHT22;1785;47.388;8.538;2022-11-20T14:33:14;10.50;99.90
3542;DHT22;1785;47.388;8.538;2022-11-20T14:35:44;10.70;99.90
3542;DHT22;1785;47.388;8.538;2022-11-20T14:38:13;10.80;99.90
3542;DHT22;1785;47.388;8.538;2022-11-20T14:40:40;10.90;99.90
3542;DHT22;1785;47.388;8.538;2022-11-20T14:43:18;10.50;99.90
3542;DHT22;1785;47.388;8.538;2022-11-20T14:45:47;10.40;99.90
3542;DHT22;1785;47.388;8.538;2022-11-20T14:48:15;10.40;99.90
3542;DHT22;1785;47.388;8.538;2022-11-20T14:50:42;10.60;99.90
3542;DHT22;1785;47.388;8.538;2022-11-20T14:53:09;10.70;99.90
3542;DHT22;1785;47.388;8.538;2022-11-20T14:55:37;10.90;99.90
3542;DHT22;1785;47.388;8.538;2022-11-20T14:58:05;11.10;99.90
3542;DHT22;1785;47.388;8.538;2022-11-20T15:00:33;11.00;99.90
3542;DHT22;1785;47.388;8.538;2022-11-20T15:03:00;11.10;99.90
3542;DHT22;1785;47.388;8.538;2022-11-20T15:05:44;11.20;99.90
3542;DHT22;1785;47.388;8.538;2022-11-20T15:08:11;11.10;99.90
3542;DHT22;1785;47.388;8.538;2022-11-20T15:10:38;11.10;99.90
3542;DHT22;1785;47.388;8.538;2022-11-20T15:13:12;11.30;99.90
3542;DHT22;1785;47.388;8.538;2022-11-20T15:15:43;11.40;99.90
3542;DHT22;1785;47.388;8.538;2022-11-20T15:18:13;11.40;99.90
3542;DHT22;1785;47.388;8.538;2022-11-20T15:20:41;11.40;99.90
3542;DHT22;1785;47.388;8.538;2022-11-20T15:23:11;11.30;99.90
3542;DHT22;1785;47.388;8.538;2022-11-20T15:25:38;11.20;99.90
3542;DHT22;1785;47.388;8.538;2022-11-20T15:28:13;11.40;99.90
3542;DHT22;1785;47.388;8.538;2022-11-20T15:30:42;11.50;99.90
3542;DHT22;1785;47.388;8.538;2022-11-20T15:33:09;11.50;99.90
3542;DHT22;1785;47.388;8.538;2022-11-20T15:35:36;11.40;99.90
3542;DHT22;1785;47.388;8.538;2022-11-20T15:38:02;11.30;99.90
3542;DHT22;1785;47.388;8.538;2022-11-20T15:40:29;11.20;99.90
3542;DHT22;1785;47.388;8.538;2022-11-20T15:42:55;11.10;99.90
3542;DHT22;1785;47.388;8.538;2022-11-20T15:45:37;10.90;99.90
3542;DHT22;1785;47.388;8.538;2022-11-20T15:48:09;11.00;99.90
3542;DHT22;1785;47.388;8.538;2022-11-20T15:50:40;10.80;99.90
3542;DHT22;1785;47.388;8.538;2022-11-20T15:53:10;10.90;99.90
3542;DHT22;1785;47.388;8.538;2022-11-20T15:55:36;10.60;99.90
3542;DHT22;1785;47.388;8.538;2022-11-20T15:58:02;10.70;99.90
3542;DHT22;1785;47.388;8.538;2022-11-20T16:00:29;10.80;99.90
3542;DHT22;1785;47.388;8.538;2022-11-20T16:02:55;10.60;99.90
3542;DHT22;1785;47.388;8.538;2022-11-20T16:05:22;10.70;99.90
3542;DHT22;1785;47.388;8.538;2022-11-20T16:07:49;10.70;99.90
3542;DHT22;1785;47.388;8.538;2022-11-20T16:10:16;10.80;99.90
3542;DHT22;1785;47.388;8.538;2022-11-20T16:12:42;10.80;99.90
3542;DHT22;1785;47.388;8.538;2022-11-20T16:15:26;10.90;99.90
3542;DHT22;1785;47.388;8.538;2022-11-20T16:18:14;10.90;99.90
3542;DHT22;1785;47.388;8.538;2022-11-20T16:20:42;10.70;99.90
3542;DHT22;1785;47.388;8.538;2022-11-20T16:23:10;10.90;99.90
3542;DHT22;1785;47.388;8.538;2022-11-20T16:25:37;10.70;99.90
3542;DHT22;1785;47.388;8.538;2022-11-20T16:28:04;10.70;99.90
3542;DHT22;1785;47.388;8.538;2022-11-20T16:30:31;10.60;99.90
3542;DHT22;1785;47.388;8.538;2022-11-20T16:32:58;10.80;99.90
3542;DHT22;1785;47.388;8.538;2022-11-20T16:35:26;10.90;99.90
3542;DHT22;1785;47.388;8.538;2022-11-20T16:37:53;10.90;99.90